sensor_id;sensor_type;location;lat;lon;timestamp;P1;durP1;ratioP1;P2;durP2;ratioP2
8050;SDS011;4068;42.158;24.732;2023-07-29T00:00:38;8.27;;;4.82;;
8050;SDS011;4068;42.158;24.732;2023-07-29T00:03:04;5.07;;;4.38;;
8050;SDS011;4068;42.158;24.732;2023-07-29T00:05:30;6.55;;;4.65;;
8050;SDS011;4068;42.158;24.732;2023-07-29T00:07:55;7.15;;;4.80;;
8050;SDS011;4068;42.158;24.732;2023-07-29T00:10:21;6.10;;;4.60;;
8050;SDS011;4068;42.158;24.732;2023-07-29T00:12:47;5.50;;;4.28;;
8050;SDS011;4068;42.158;24.732;2023-07-29T00:15:13;6.03;;;3.92;;
8050;SDS011;4068;42.158;24.732;2023-07-29T00:17:38;5.35;;;4.28;;
8050;SDS011;4068;42.158;24.732;2023-07-29T00:20:05;5.18;;;4.00;;
8050;SDS011;4068;42.158;24.732;2023-07-29T00:22:31;6.35;;;3.78;;
8050;SDS011;4068;42.158;24.732;2023-07-29T00:24:56;5.50;;;3.90;;
8050;SDS011;4068;42.158;24.732;2023-07-29T00:27:25;4.88;;;3.90;;
8050;SDS011;4068;42.158;24.732;2023-07-29T00:29:51;5.30;;;4.00;;
8050;SDS011;4068;42.158;24.732;2023-07-29T00:32:17;7.38;;;4.28;;
8050;SDS011;4068;42.158;24.732;2023-07-29T00:34:42;7.72;;;4.30;;
8050;SDS011;4068;42.158;24.732;2023-07-29T00:37:08;4.97;;;4.18;;
8050;SDS011;4068;42.158;24.732;2023-07-29T00:39:33;6.80;;;3.88;;
8050;SDS011;4068;42.158;24.732;2023-07-29T00:41:59;5.97;;;4.30;;
8050;SDS011;4068;42.158;24.732;2023-07-29T00:44:24;6.07;;;4.47;;
8050;SDS011;4068;42.158;24.732;2023-07-29T00:46:53;7.13;;;4.10;;
8050;SDS011;4068;42.158;24.732;2023-07-29T00:49:20;4.95;;;3.90;;
8050;SDS011;4068;42.158;24.732;2023-07-29T00:51:46;4.35;;;3.95;;
8050;SDS011;4068;42.158;24.732;2023-07-29T00:54:12;7.78;;;4.30;;
8050;SDS011;4068;42.158;24.732;2023-07-29T00:56:38;5.60;;;4.30;;
8050;SDS011;4068;42.158;24.732;2023-07-29T00:59:04;7.13;;;4.18;;
8050;SDS011;4068;42.158;24.732;2023-07-29T01:01:30;6.28;;;4.43;;
8050;SDS011;4068;42.158;24.732;2023-07-29T01:03:57;5.40;;;4.47;;
8050;SDS011;4068;42.158;24.732;2023-07-29T01:14:31;8.02;;;4.78;;
8050;SDS011;4068;42.158;24.732;2023-07-29T01:17:04;6.63;;;4.68;;
8050;SDS011;4068;42.158;24.732;2023-07-29T01:20:16;5.55;;;4.60;;
8050;SDS011;4068;42.158;24.732;2023-07-29T01:22:26;6.55;;;5.10;;
8050;SDS011;4068;42.158;24.732;2023-07-29T01:24:52;7.03;;;5.15;;
8050;SDS011;4068;42.158;24.732;2023-07-29T01:27:18;7.25;;;4.80;;
8050;SDS011;4068;42.158;24.732;2023-07-29T01:29:43;7.80;;;5.20;;
8050;SDS011;4068;42.158;24.732;2023-07-29T01:32:14;7.30;;;4.68;;
8050;SDS011;4068;42.158;24.732;2023-07-29T01:34:48;7.45;;;5.63;;
8050;SDS011;4068;42.158;24.732;2023-07-29T01:37:26;6.88;;;5.47;;
8050;SDS011;4068;42.158;24.732;2023-07-29T01:39:54;7.82;;;5.47;;
8050;SDS011;4068;42.158;24.732;2023-07-29T01:42:24;7.88;;;5.35;;
8050;SDS011;4068;42.158;24.732;2023-07-29T01:44:51;6.43;;;5.60;;
8050;SDS011;4068;42.158;24.732;2023-07-29T01:47:16;8.13;;;6.00;;
8050;SDS011;4068;42.158;24.732;2023-07-29T01:49:42;10.25;;;5.50;;
8050;SDS011;4068;42.158;24.732;2023-07-29T01:52:07;6.65;;;5.40;;
8050;SDS011;4068;42.158;24.732;2023-07-29T01:54:32;6.88;;;5.53;;
8050;SDS011;4068;42.158;24.732;2023-07-29T01:56:58;6.80;;;5.65;;
8050;SDS011;4068;42.158;24.732;2023-07-29T01:59:23;8.38;;;5.50;;
8050;SDS011;4068;42.158;24.732;2023-07-29T02:01:49;6.72;;;5.32;;
8050;SDS011;4068;42.158;24.732;2023-07-29T02:04:14;6.53;;;5.10;;
8050;SDS011;4068;42.158;24.732;2023-07-29T02:06:40;8.10;;;5.80;;
8050;SDS011;4068;42.158;24.732;2023-07-29T02:09:05;6.60;;;5.22;;
8050;SDS011;4068;42.158;24.732;2023-07-29T02:11:31;10.55;;;6.38;;
8050;SDS011;4068;42.158;24.732;2023-07-29T02:13:56;8.20;;;6.13;;
8050;SDS011;4068;42.158;24.732;2023-07-29T02:16:22;8.68;;;6.05;;
8050;SDS011;4068;42.158;24.732;2023-07-29T02:18:48;11.20;;;6.35;;
8050;SDS011;4068;42.158;24.732;2023-07-29T02:21:17;6.75;;;5.57;;
8050;SDS011;4068;42.158;24.732;2023-07-29T02:23:42;7.00;;;6.30;;
8050;SDS011;4068;42.158;24.732;2023-07-29T02:26:08;8.52;;;6.28;;
8050;SDS011;4068;42.158;24.732;2023-07-29T02:28:33;7.75;;;5.93;;
8050;SDS011;4068;42.158;24.732;2023-07-29T02:33:53;10.15;;;5.68;;
8050;SDS011;4068;42.158;24.732;2023-07-29T02:36:19;7.25;;;5.88;;
8050;SDS011;4068;42.158;24.732;2023-07-29T02:38:44;7.80;;;5.70;;
8050;SDS011;4068;42.158;24.732;2023-07-29T02:41:10;10.48;;;6.15;;
8050;SDS011;4068;42.158;24.732;2023-07-29T02:43:41;9.35;;;6.25;;
8050;SDS011;4068;42.158;24.732;2023-07-29T02:46:07;7.93;;;6.03;;
8050;SDS011;4068;42.158;24.732;2023-07-29T02:48:33;10.05;;;5.80;;
8050;SDS011;4068;42.158;24.732;2023-07-29T02:50:58;8.00;;;5.75;;
8050;SDS011;4068;42.158;24.732;2023-07-29T02:53:24;8.23;;;5.90;;
8050;SDS011;4068;42.158;24.732;2023-07-29T02:55:50;8.15;;;5.55;;
8050;SDS011;4068;42.158;24.732;2023-07-29T02:58:16;10.48;;;6.07;;
8050;SDS011;4068;42.158;24.732;2023-07-29T03:00:41;6.63;;;5.60;;
8050;SDS011;4068;42.158;24.732;2023-07-29T03:03:08;7.25;;;5.63;;
8050;SDS011;4068;42.158;24.732;2023-07-29T03:05:33;6.32;;;5.47;;
8050;SDS011;4068;42.158;24.732;2023-07-29T03:07:59;9.13;;;6.25;;
8050;SDS011;4068;42.158;24.732;2023-07-29T03:10:24;11.63;;;6.47;;
8050;SDS011;4068;42.158;24.732;2023-07-29T03:12:50;7.47;;;5.88;;
8050;SDS011;4068;42.158;24.732;2023-07-29T03:15:16;7.72;;;5.90;;
8050;SDS011;4068;42.158;24.732;2023-07-29T03:17:41;8.02;;;6.55;;
8050;SDS011;4068;42.158;24.732;2023-07-29T03:20:07;8.60;;;6.22;;
8050;SDS011;4068;42.158;24.732;2023-07-29T03:22:33;9.80;;;6.07;;
8050;SDS011;4068;42.158;24.732;2023-07-29T03:24:58;10.60;;;5.85;;
8050;SDS011;4068;42.158;24.732;2023-07-29T03:27:23;6.53;;;5.45;;
8050;SDS011;4068;42.158;24.732;2023-07-29T03:29:49;9.48;;;5.57;;
8050;SDS011;4068;42.158;24.732;2023-07-29T03:32:14;8.68;;;5.68;;
8050;SDS011;4068;42.158;24.732;2023-07-29T03:34:40;8.45;;;5.85;;
8050;SDS011;4068;42.158;24.732;2023-07-29T03:37:05;7.40;;;5.40;;
8050;SDS011;4068;42.158;24.732;2023-07-29T03:39:31;8.13;;;4.93;;
8050;SDS011;4068;42.158;24.732;2023-07-29T03:41:57;6.82;;;5.57;;
8050;SDS011;4068;42.158;24.732;2023-07-29T03:44:22;5.70;;;4.82;;
8050;SDS011;4068;42.158;24.732;2023-07-29T03:46:48;6.88;;;5.50;;
8050;SDS011;4068;42.158;24.732;2023-07-29T03:49:13;8.70;;;5.60;;
8050;SDS011;4068;42.158;24.732;2023-07-29T03:51:39;5.70;;;5.10;;
8050;SDS011;4068;42.158;24.732;2023-07-29T03:54:04;8.18;;;5.75;;
8050;SDS011;4068;42.158;24.732;2023-07-29T03:56:29;9.85;;;5.40;;
8050;SDS011;4068;42.158;24.732;2023-07-29T03:59:02;8.85;;;5.05;;
8050;SDS011;4068;42.158;24.732;2023-07-29T04:01:28;6.57;;;5.38;;
8050;SDS011;4068;42.158;24.732;2023-07-29T04:03:54;10.43;;;5.72;;
8050;SDS011;4068;42.158;24.732;2023-07-29T04:06:19;10.18;;;5.63;;
8050;SDS011;4068;42.158;24.732;2023-07-29T04:08:45;6.03;;;5.43;;
8050;SDS011;4068;42.158;24.732;2023-07-29T04:11:11;9.15;;;5.80;;
8050;SDS011;4068;42.158;24.732;2023-07-29T04:13:36;7.32;;;5.70;;
8050;SDS011;4068;42.158;24.732;2023-07-29T04:16:03;9.45;;;5.90;;
8050;SDS011;4068;42.158;24.732;2023-07-29T04:18:29;10.68;;;6.07;;
8050;SDS011;4068;42.158;24.732;2023-07-29T04:20:54;10.30;;;6.15;;
8050;SDS011;4068;42.158;24.732;2023-07-29T04:23:20;10.90;;;6.32;;
8050;SDS011;4068;42.158;24.732;2023-07-29T04:25:45;9.32;;;5.45;;
8050;SDS011;4068;42.158;24.732;2023-07-29T04:28:11;12.18;;;5.53;;
8050;SDS011;4068;42.158;24.732;2023-07-29T04:30:36;9.77;;;5.55;;
8050;SDS011;4068;42.158;24.732;2023-07-29T04:33:01;9.23;;;5.97;;
8050;SDS011;4068;42.158;24.732;2023-07-29T04:35:28;8.93;;;5.72;;
8050;SDS011;4068;42.158;24.732;2023-07-29T04:37:53;10.35;;;5.95;;
8050;SDS011;4068;42.158;24.732;2023-07-29T04:40:18;9.85;;;5.68;;
8050;SDS011;4068;42.158;24.732;2023-07-29T04:42:44;9.98;;;5.65;;
8050;SDS011;4068;42.158;24.732;2023-07-29T04:45:09;8.30;;;5.90;;
8050;SDS011;4068;42.158;24.732;2023-07-29T04:47:35;10.02;;;5.90;;
8050;SDS011;4068;42.158;24.732;2023-07-29T04:50:00;9.38;;;5.60;;
8050;SDS011;4068;42.158;24.732;2023-07-29T04:52:26;8.73;;;6.13;;
8050;SDS011;4068;42.158;24.732;2023-07-29T04:54:51;10.38;;;6.10;;
8050;SDS011;4068;42.158;24.732;2023-07-29T04:57:17;10.73;;;5.93;;
8050;SDS011;4068;42.158;24.732;2023-07-29T04:59:42;8.80;;;5.22;;
8050;SDS011;4068;42.158;24.732;2023-07-29T05:02:07;6.90;;;5.25;;
8050;SDS011;4068;42.158;24.732;2023-07-29T05:04:33;8.02;;;5.00;;
8050;SDS011;4068;42.158;24.732;2023-07-29T05:06:58;10.60;;;5.65;;
8050;SDS011;4068;42.158;24.732;2023-07-29T05:09:24;11.30;;;6.38;;
8050;SDS011;4068;42.158;24.732;2023-07-29T05:11:49;11.70;;;6.18;;
8050;SDS011;4068;42.158;24.732;2023-07-29T05:14:15;11.48;;;5.82;;
8050;SDS011;4068;42.158;24.732;2023-07-29T05:16:42;9.57;;;5.95;;
8050;SDS011;4068;42.158;24.732;2023-07-29T05:19:07;8.07;;;5.57;;
8050;SDS011;4068;42.158;24.732;2023-07-29T05:21:33;9.48;;;5.60;;
8050;SDS011;4068;42.158;24.732;2023-07-29T05:23:59;10.38;;;6.20;;
8050;SDS011;4068;42.158;24.732;2023-07-29T05:26:24;7.13;;;5.07;;
8050;SDS011;4068;42.158;24.732;2023-07-29T05:28:50;10.05;;;5.68;;
8050;SDS011;4068;42.158;24.732;2023-07-29T05:31:15;8.63;;;5.32;;
8050;SDS011;4068;42.158;24.732;2023-07-29T05:33:41;10.40;;;6.32;;
8050;SDS011;4068;42.158;24.732;2023-07-29T05:36:06;13.70;;;5.70;;
8050;SDS011;4068;42.158;24.732;2023-07-29T05:38:31;12.95;;;5.90;;
8050;SDS011;4068;42.158;24.732;2023-07-29T05:40:57;11.93;;;5.30;;
8050;SDS011;4068;42.158;24.732;2023-07-29T05:43:25;12.35;;;5.78;;
8050;SDS011;4068;42.158;24.732;2023-07-29T05:45:51;9.73;;;5.40;;
8050;SDS011;4068;42.158;24.732;2023-07-29T05:48:17;8.20;;;5.65;;
8050;SDS011;4068;42.158;24.732;2023-07-29T05:50:42;6.75;;;5.10;;
8050;SDS011;4068;42.158;24.732;2023-07-29T05:53:08;7.28;;;5.10;;
8050;SDS011;4068;42.158;24.732;2023-07-29T05:55:33;7.15;;;5.35;;
8050;SDS011;4068;42.158;24.732;2023-07-29T05:57:59;9.75;;;5.00;;
8050;SDS011;4068;42.158;24.732;2023-07-29T06:00:24;6.78;;;5.15;;
8050;SDS011;4068;42.158;24.732;2023-07-29T06:02:49;10.20;;;4.38;;
8050;SDS011;4068;42.158;24.732;2023-07-29T06:05:15;6.80;;;3.75;;
8050;SDS011;4068;42.158;24.732;2023-07-29T06:07:40;7.60;;;4.72;;
8050;SDS011;4068;42.158;24.732;2023-07-29T06:10:09;6.43;;;4.10;;
8050;SDS011;4068;42.158;24.732;2023-07-29T06:12:37;6.15;;;4.15;;
8050;SDS011;4068;42.158;24.732;2023-07-29T06:15:02;7.97;;;3.92;;
8050;SDS011;4068;42.158;24.732;2023-07-29T06:17:28;6.78;;;3.60;;
8050;SDS011;4068;42.158;24.732;2023-07-29T06:19:54;5.70;;;3.97;;
8050;SDS011;4068;42.158;24.732;2023-07-29T06:22:19;5.93;;;3.78;;
8050;SDS011;4068;42.158;24.732;2023-07-29T06:24:44;8.52;;;3.92;;
8050;SDS011;4068;42.158;24.732;2023-07-29T06:27:10;6.57;;;3.60;;
8050;SDS011;4068;42.158;24.732;2023-07-29T06:29:35;4.00;;;3.60;;
8050;SDS011;4068;42.158;24.732;2023-07-29T06:32:01;5.72;;;3.92;;
8050;SDS011;4068;42.158;24.732;2023-07-29T06:34:26;4.65;;;3.67;;
8050;SDS011;4068;42.158;24.732;2023-07-29T06:36:52;7.72;;;3.85;;
8050;SDS011;4068;42.158;24.732;2023-07-29T06:39:17;5.05;;;3.65;;
8050;SDS011;4068;42.158;24.732;2023-07-29T06:41:42;7.35;;;3.88;;
8050;SDS011;4068;42.158;24.732;2023-07-29T06:44:08;7.38;;;3.67;;
8050;SDS011;4068;42.158;24.732;2023-07-29T06:46:33;4.85;;;3.45;;
8050;SDS011;4068;42.158;24.732;2023-07-29T06:48:59;3.88;;;3.47;;
8050;SDS011;4068;42.158;24.732;2023-07-29T06:51:24;8.40;;;3.83;;
8050;SDS011;4068;42.158;24.732;2023-07-29T06:53:50;10.32;;;3.83;;
8050;SDS011;4068;42.158;24.732;2023-07-29T06:56:15;5.72;;;3.50;;
8050;SDS011;4068;42.158;24.732;2023-07-29T06:58:40;7.63;;;3.30;;
8050;SDS011;4068;42.158;24.732;2023-07-29T07:01:06;6.68;;;3.38;;
8050;SDS011;4068;42.158;24.732;2023-07-29T07:03:31;5.20;;;3.78;;
8050;SDS011;4068;42.158;24.732;2023-07-29T07:05:57;7.55;;;3.67;;
8050;SDS011;4068;42.158;24.732;2023-07-29T07:08:22;8.50;;;4.68;;
8050;SDS011;4068;42.158;24.732;2023-07-29T07:10:47;8.63;;;3.55;;
8050;SDS011;4068;42.158;24.732;2023-07-29T07:13:13;9.93;;;3.85;;
8050;SDS011;4068;42.158;24.732;2023-07-29T07:15:38;7.88;;;3.65;;
8050;SDS011;4068;42.158;24.732;2023-07-29T07:18:04;3.60;;;3.30;;
8050;SDS011;4068;42.158;24.732;2023-07-29T07:20:29;5.82;;;3.67;;
8050;SDS011;4068;42.158;24.732;2023-07-29T07:22:55;6.47;;;3.45;;
8050;SDS011;4068;42.158;24.732;2023-07-29T07:25:21;6.25;;;3.72;;
8050;SDS011;4068;42.158;24.732;2023-07-29T07:27:47;5.00;;;4.05;;
8050;SDS011;4068;42.158;24.732;2023-07-29T07:30:13;8.52;;;3.72;;
8050;SDS011;4068;42.158;24.732;2023-07-29T07:32:39;4.40;;;3.63;;
8050;SDS011;4068;42.158;24.732;2023-07-29T07:35:05;7.90;;;4.50;;
8050;SDS011;4068;42.158;24.732;2023-07-29T07:37:30;6.97;;;3.60;;
8050;SDS011;4068;42.158;24.732;2023-07-29T07:39:56;6.57;;;4.35;;
8050;SDS011;4068;42.158;24.732;2023-07-29T07:42:21;6.57;;;3.90;;
8050;SDS011;4068;42.158;24.732;2023-07-29T07:44:46;12.40;;;4.57;;
8050;SDS011;4068;42.158;24.732;2023-07-29T07:47:12;13.50;;;4.70;;
8050;SDS011;4068;42.158;24.732;2023-07-29T07:49:37;6.10;;;3.97;;
8050;SDS011;4068;42.158;24.732;2023-07-29T07:52:03;4.72;;;3.83;;
8050;SDS011;4068;42.158;24.732;2023-07-29T07:54:28;10.68;;;3.88;;
8050;SDS011;4068;42.158;24.732;2023-07-29T07:56:54;7.72;;;4.30;;
8050;SDS011;4068;42.158;24.732;2023-07-29T07:59:19;5.68;;;4.00;;
8050;SDS011;4068;42.158;24.732;2023-07-29T08:01:45;6.72;;;3.65;;
8050;SDS011;4068;42.158;24.732;2023-07-29T08:04:10;7.70;;;3.30;;
8050;SDS011;4068;42.158;24.732;2023-07-29T08:06:36;3.97;;;3.60;;
8050;SDS011;4068;42.158;24.732;2023-07-29T08:09:01;5.25;;;3.72;;
8050;SDS011;4068;42.158;24.732;2023-07-29T08:11:27;4.78;;;3.50;;
8050;SDS011;4068;42.158;24.732;2023-07-29T08:13:52;7.95;;;4.13;;
8050;SDS011;4068;42.158;24.732;2023-07-29T08:16:18;6.03;;;4.75;;
8050;SDS011;4068;42.158;24.732;2023-07-29T08:18:43;4.63;;;4.00;;
8050;SDS011;4068;42.158;24.732;2023-07-29T08:21:09;5.93;;;4.22;;
8050;SDS011;4068;42.158;24.732;2023-07-29T08:23:35;4.82;;;3.80;;
8050;SDS011;4068;42.158;24.732;2023-07-29T08:26:05;8.05;;;4.47;;
8050;SDS011;4068;42.158;24.732;2023-07-29T08:28:32;9.93;;;4.25;;
8050;SDS011;4068;42.158;24.732;2023-07-29T08:30:59;7.53;;;3.80;;
8050;SDS011;4068;42.158;24.732;2023-07-29T08:33:25;6.90;;;3.92;;
8050;SDS011;4068;42.158;24.732;2023-07-29T08:35:50;7.60;;;4.32;;
8050;SDS011;4068;42.158;24.732;2023-07-29T08:38:16;8.82;;;5.43;;
8050;SDS011;4068;42.158;24.732;2023-07-29T08:40:43;4.53;;;3.92;;
8050;SDS011;4068;42.158;24.732;2023-07-29T08:43:15;4.88;;;4.28;;
8050;SDS011;4068;42.158;24.732;2023-07-29T08:45:43;7.45;;;4.18;;
8050;SDS011;4068;42.158;24.732;2023-07-29T08:48:10;5.55;;;3.75;;
8050;SDS011;4068;42.158;24.732;2023-07-29T08:50:36;6.10;;;4.28;;
8050;SDS011;4068;42.158;24.732;2023-07-29T08:53:05;5.25;;;4.40;;
8050;SDS011;4068;42.158;24.732;2023-07-29T08:55:32;6.95;;;5.70;;
8050;SDS011;4068;42.158;24.732;2023-07-29T08:57:58;5.80;;;4.57;;
8050;SDS011;4068;42.158;24.732;2023-07-29T09:00:28;8.98;;;4.32;;
8050;SDS011;4068;42.158;24.732;2023-07-29T09:02:54;8.52;;;4.78;;
8050;SDS011;4068;42.158;24.732;2023-07-29T09:05:23;9.05;;;4.30;;
8050;SDS011;4068;42.158;24.732;2023-07-29T09:07:49;11.25;;;4.68;;
8050;SDS011;4068;42.158;24.732;2023-07-29T09:10:16;5.60;;;3.55;;
8050;SDS011;4068;42.158;24.732;2023-07-29T09:12:48;4.78;;;3.40;;
8050;SDS011;4068;42.158;24.732;2023-07-29T09:15:16;4.88;;;3.90;;
8050;SDS011;4068;42.158;24.732;2023-07-29T09:17:51;4.38;;;3.72;;
8050;SDS011;4068;42.158;24.732;2023-07-29T09:20:22;5.28;;;3.60;;
8050;SDS011;4068;42.158;24.732;2023-07-29T09:22:53;4.80;;;3.72;;
8050;SDS011;4068;42.158;24.732;2023-07-29T09:25:26;5.50;;;3.33;;
8050;SDS011;4068;42.158;24.732;2023-07-29T09:27:52;5.22;;;3.83;;
8050;SDS011;4068;42.158;24.732;2023-07-29T09:30:23;3.45;;;3.15;;
8050;SDS011;4068;42.158;24.732;2023-07-29T09:32:52;9.60;;;4.28;;
8050;SDS011;4068;42.158;24.732;2023-07-29T09:35:20;5.40;;;4.07;;
8050;SDS011;4068;42.158;24.732;2023-07-29T09:37:45;4.05;;;3.63;;
8050;SDS011;4068;42.158;24.732;2023-07-29T09:40:14;4.38;;;3.80;;
8050;SDS011;4068;42.158;24.732;2023-07-29T09:42:52;6.22;;;3.80;;
8050;SDS011;4068;42.158;24.732;2023-07-29T09:45:26;5.80;;;3.33;;
8050;SDS011;4068;42.158;24.732;2023-07-29T09:47:52;10.20;;;4.10;;
8050;SDS011;4068;42.158;24.732;2023-07-29T09:50:20;4.82;;;3.50;;
8050;SDS011;4068;42.158;24.732;2023-07-29T09:52:48;7.55;;;3.55;;
8050;SDS011;4068;42.158;24.732;2023-07-29T09:55:17;6.88;;;3.58;;
8050;SDS011;4068;42.158;24.732;2023-07-29T09:57:44;3.22;;;2.92;;
8050;SDS011;4068;42.158;24.732;2023-07-29T10:00:13;4.32;;;3.20;;
8050;SDS011;4068;42.158;24.732;2023-07-29T10:02:39;3.45;;;3.20;;
8050;SDS011;4068;42.158;24.732;2023-07-29T10:05:06;4.95;;;2.85;;
8050;SDS011;4068;42.158;24.732;2023-07-29T10:07:33;3.10;;;2.90;;
8050;SDS011;4068;42.158;24.732;2023-07-29T10:10:01;4.95;;;3.22;;
8050;SDS011;4068;42.158;24.732;2023-07-29T10:12:28;4.82;;;3.25;;
8050;SDS011;4068;42.158;24.732;2023-07-29T10:14:55;3.50;;;3.20;;
8050;SDS011;4068;42.158;24.732;2023-07-29T10:17:28;3.60;;;3.30;;
8050;SDS011;4068;42.158;24.732;2023-07-29T10:19:55;4.65;;;3.00;;
8050;SDS011;4068;42.158;24.732;2023-07-29T10:22:24;2.90;;;2.70;;
8050;SDS011;4068;42.158;24.732;2023-07-29T10:24:54;5.20;;;2.88;;
8050;SDS011;4068;42.158;24.732;2023-07-29T10:27:22;4.32;;;3.25;;
8050;SDS011;4068;42.158;24.732;2023-07-29T10:29:49;3.53;;;2.78;;
8050;SDS011;4068;42.158;24.732;2023-07-29T10:32:15;4.80;;;2.97;;
8050;SDS011;4068;42.158;24.732;2023-07-29T10:34:41;2.92;;;2.70;;
8050;SDS011;4068;42.158;24.732;2023-07-29T10:37:07;4.55;;;3.08;;
8050;SDS011;4068;42.158;24.732;2023-07-29T10:39:39;8.23;;;3.00;;
8050;SDS011;4068;42.158;24.732;2023-07-29T10:42:06;4.70;;;4.03;;
8050;SDS011;4068;42.158;24.732;2023-07-29T10:47:14;5.00;;;3.25;;
8050;SDS011;4068;42.158;24.732;2023-07-29T10:49:40;3.50;;;2.83;;
8050;SDS011;4068;42.158;24.732;2023-07-29T10:52:06;3.55;;;2.72;;
8050;SDS011;4068;42.158;24.732;2023-07-29T10:54:41;4.38;;;2.90;;
8050;SDS011;4068;42.158;24.732;2023-07-29T10:57:15;2.92;;;2.70;;
8050;SDS011;4068;42.158;24.732;2023-07-29T10:59:55;7.18;;;2.90;;
8050;SDS011;4068;42.158;24.732;2023-07-29T11:02:22;2.88;;;2.50;;
8050;SDS011;4068;42.158;24.732;2023-07-29T11:04:54;3.05;;;2.72;;
8050;SDS011;4068;42.158;24.732;2023-07-29T11:07:21;4.72;;;2.70;;
8050;SDS011;4068;42.158;24.732;2023-07-29T11:15:13;3.45;;;3.05;;
8050;SDS011;4068;42.158;24.732;2023-07-29T11:17:48;3.35;;;2.97;;
8050;SDS011;4068;42.158;24.732;2023-07-29T11:20:16;6.03;;;3.20;;
8050;SDS011;4068;42.158;24.732;2023-07-29T11:22:43;4.43;;;3.15;;
8050;SDS011;4068;42.158;24.732;2023-07-29T11:25:09;3.83;;;2.65;;
8050;SDS011;4068;42.158;24.732;2023-07-29T11:27:36;4.57;;;3.35;;
8050;SDS011;4068;42.158;24.732;2023-07-29T11:30:06;3.90;;;3.00;;
8050;SDS011;4068;42.158;24.732;2023-07-29T11:32:34;4.22;;;2.88;;
8050;SDS011;4068;42.158;24.732;2023-07-29T11:35:18;4.63;;;2.88;;
8050;SDS011;4068;42.158;24.732;2023-07-29T11:37:45;4.70;;;3.30;;
8050;SDS011;4068;42.158;24.732;2023-07-29T11:40:15;3.03;;;2.35;;
8050;SDS011;4068;42.158;24.732;2023-07-29T11:42:42;4.85;;;2.65;;
8050;SDS011;4068;42.158;24.732;2023-07-29T11:45:07;3.45;;;3.10;;
8050;SDS011;4068;42.158;24.732;2023-07-29T11:47:34;4.90;;;2.97;;
8050;SDS011;4068;42.158;24.732;2023-07-29T11:50:02;2.67;;;2.47;;
8050;SDS011;4068;42.158;24.732;2023-07-29T11:52:30;2.60;;;2.40;;
8050;SDS011;4068;42.158;24.732;2023-07-29T11:54:57;2.50;;;2.15;;
8050;SDS011;4068;42.158;24.732;2023-07-29T11:57:23;3.38;;;2.25;;
8050;SDS011;4068;42.158;24.732;2023-07-29T11:59:49;3.90;;;2.25;;
8050;SDS011;4068;42.158;24.732;2023-07-29T12:02:17;2.05;;;1.92;;
8050;SDS011;4068;42.158;24.732;2023-07-29T12:04:46;4.68;;;2.60;;
8050;SDS011;4068;42.158;24.732;2023-07-29T12:07:12;6.28;;;2.92;;
8050;SDS011;4068;42.158;24.732;2023-07-29T12:09:38;3.53;;;2.70;;
8050;SDS011;4068;42.158;24.732;2023-07-29T12:12:05;4.43;;;2.88;;
8050;SDS011;4068;42.158;24.732;2023-07-29T12:14:32;2.60;;;2.40;;
8050;SDS011;4068;42.158;24.732;2023-07-29T12:17:02;3.65;;;2.15;;
8050;SDS011;4068;42.158;24.732;2023-07-29T12:19:33;2.65;;;2.30;;
8050;SDS011;4068;42.158;24.732;2023-07-29T12:22:03;2.60;;;2.40;;
8050;SDS011;4068;42.158;24.732;2023-07-29T12:24:34;3.63;;;2.67;;
8050;SDS011;4068;42.158;24.732;2023-07-29T12:27:02;6.57;;;2.67;;
8050;SDS011;4068;42.158;24.732;2023-07-29T12:29:28;4.75;;;2.75;;
8050;SDS011;4068;42.158;24.732;2023-07-29T12:31:57;3.42;;;2.30;;
8050;SDS011;4068;42.158;24.732;2023-07-29T12:34:32;4.70;;;2.70;;
8050;SDS011;4068;42.158;24.732;2023-07-29T12:36:58;4.47;;;3.00;;
8050;SDS011;4068;42.158;24.732;2023-07-29T12:39:27;4.57;;;3.03;;
8050;SDS011;4068;42.158;24.732;2023-07-29T12:41:54;3.78;;;3.05;;
8050;SDS011;4068;42.158;24.732;2023-07-29T12:44:22;2.53;;;2.33;;
8050;SDS011;4068;42.158;24.732;2023-07-29T12:46:48;1.80;;;1.70;;
8050;SDS011;4068;42.158;24.732;2023-07-29T12:49:13;5.10;;;2.70;;
8050;SDS011;4068;42.158;24.732;2023-07-29T12:51:39;2.85;;;1.90;;
8050;SDS011;4068;42.158;24.732;2023-07-29T12:54:04;2.03;;;1.60;;
8050;SDS011;4068;42.158;24.732;2023-07-29T12:56:30;2.10;;;1.90;;
8050;SDS011;4068;42.158;24.732;2023-07-29T12:58:56;7.22;;;5.53;;
8050;SDS011;4068;42.158;24.732;2023-07-29T13:01:23;4.72;;;2.70;;
8050;SDS011;4068;42.158;24.732;2023-07-29T13:03:49;2.00;;;1.80;;
8050;SDS011;4068;42.158;24.732;2023-07-29T13:06:33;2.28;;;2.00;;
8050;SDS011;4068;42.158;24.732;2023-07-29T13:08:58;1.83;;;1.50;;
8050;SDS011;4068;42.158;24.732;2023-07-29T13:11:23;2.33;;;1.67;;
8050;SDS011;4068;42.158;24.732;2023-07-29T13:13:49;1.63;;;1.52;;
8050;SDS011;4068;42.158;24.732;2023-07-29T13:16:15;4.00;;;1.80;;
8050;SDS011;4068;42.158;24.732;2023-07-29T13:18:40;4.22;;;2.10;;
8050;SDS011;4068;42.158;24.732;2023-07-29T13:21:08;1.55;;;1.40;;
8050;SDS011;4068;42.158;24.732;2023-07-29T13:23:33;3.00;;;1.42;;
8050;SDS011;4068;42.158;24.732;2023-07-29T13:25:59;2.67;;;1.40;;
8050;SDS011;4068;42.158;24.732;2023-07-29T13:28:24;2.42;;;1.70;;
8050;SDS011;4068;42.158;24.732;2023-07-29T13:30:49;1.50;;;1.38;;
8050;SDS011;4068;42.158;24.732;2023-07-29T13:33:15;1.50;;;1.40;;
8050;SDS011;4068;42.158;24.732;2023-07-29T13:35:40;2.97;;;1.33;;
8050;SDS011;4068;42.158;24.732;2023-07-29T13:38:06;1.50;;;1.40;;
8050;SDS011;4068;42.158;24.732;2023-07-29T13:40:31;1.85;;;1.58;;
8050;SDS011;4068;42.158;24.732;2023-07-29T13:42:57;1.85;;;1.75;;
8050;SDS011;4068;42.158;24.732;2023-07-29T13:45:23;1.80;;;1.70;;
8050;SDS011;4068;42.158;24.732;2023-07-29T13:47:48;2.50;;;2.10;;
8050;SDS011;4068;42.158;24.732;2023-07-29T13:50:15;1.60;;;1.50;;
8050;SDS011;4068;42.158;24.732;2023-07-29T13:52:41;1.60;;;1.50;;
8050;SDS011;4068;42.158;24.732;2023-07-29T13:55:06;2.20;;;2.00;;
8050;SDS011;4068;42.158;24.732;2023-07-29T13:57:32;1.80;;;1.70;;
8050;SDS011;4068;42.158;24.732;2023-07-29T13:59:58;2.92;;;1.38;;
8050;SDS011;4068;42.158;24.732;2023-07-29T14:02:24;1.85;;;1.63;;
8050;SDS011;4068;42.158;24.732;2023-07-29T14:04:52;1.50;;;1.40;;
8050;SDS011;4068;42.158;24.732;2023-07-29T14:07:18;1.90;;;1.70;;
8050;SDS011;4068;42.158;24.732;2023-07-29T14:09:43;1.55;;;1.45;;
8050;SDS011;4068;42.158;24.732;2023-07-29T14:12:09;2.22;;;2.05;;
8050;SDS011;4068;42.158;24.732;2023-07-29T14:14:39;2.75;;;1.50;;
8050;SDS011;4068;42.158;24.732;2023-07-29T14:17:05;2.58;;;1.80;;
8050;SDS011;4068;42.158;24.732;2023-07-29T14:19:31;2.15;;;2.00;;
8050;SDS011;4068;42.158;24.732;2023-07-29T14:21:56;3.25;;;1.77;;
8050;SDS011;4068;42.158;24.732;2023-07-29T14:24:23;2.72;;;1.70;;
8050;SDS011;4068;42.158;24.732;2023-07-29T14:26:48;1.45;;;1.35;;
8050;SDS011;4068;42.158;24.732;2023-07-29T14:29:14;2.33;;;2.10;;
8050;SDS011;4068;42.158;24.732;2023-07-29T14:31:39;3.90;;;1.50;;
8050;SDS011;4068;42.158;24.732;2023-07-29T14:34:05;3.83;;;1.40;;
8050;SDS011;4068;42.158;24.732;2023-07-29T14:36:30;3.53;;;1.65;;
8050;SDS011;4068;42.158;24.732;2023-07-29T14:38:56;3.58;;;1.50;;
8050;SDS011;4068;42.158;24.732;2023-07-29T14:41:21;2.13;;;1.90;;
8050;SDS011;4068;42.158;24.732;2023-07-29T14:43:46;1.60;;;1.50;;
8050;SDS011;4068;42.158;24.732;2023-07-29T14:46:12;3.33;;;2.95;;
8050;SDS011;4068;42.158;24.732;2023-07-29T14:48:37;4.60;;;3.60;;
8050;SDS011;4068;42.158;24.732;2023-07-29T14:51:03;2.08;;;1.88;;
8050;SDS011;4068;42.158;24.732;2023-07-29T14:53:28;1.85;;;1.75;;
8050;SDS011;4068;42.158;24.732;2023-07-29T14:55:53;3.67;;;2.80;;
8050;SDS011;4068;42.158;24.732;2023-07-29T14:58:19;2.08;;;1.70;;
8050;SDS011;4068;42.158;24.732;2023-07-29T15:00:45;1.60;;;1.50;;
8050;SDS011;4068;42.158;24.732;2023-07-29T15:03:10;1.70;;;1.60;;
8050;SDS011;4068;42.158;24.732;2023-07-29T15:05:35;1.60;;;1.50;;
8050;SDS011;4068;42.158;24.732;2023-07-29T15:08:01;1.88;;;1.60;;
8050;SDS011;4068;42.158;24.732;2023-07-29T15:10:26;1.52;;;1.42;;
8050;SDS011;4068;42.158;24.732;2023-07-29T15:12:52;2.97;;;1.90;;
8050;SDS011;4068;42.158;24.732;2023-07-29T15:15:17;2.40;;;2.20;;